Terminal Aerodrome Forecast
Issued by NWS

Home | Current Version | Previous Version | Text Only | Print | Product List | Glossary On
Versions: 1 2 3 4 5 6 7 8 9 10 11 12 13 14 15 16 17 18 19
000
FTAK31 PAJN 272104 AAA
TAFAWG
TAF AMD
PAWG 272104Z 2721/2818 VRB04KT 4SM -RA BR OVC020
     FM272300 26005KT P6SM -SHRA BKN025 OVC030
     FM280300 VRB03KT P6SM VCSH SCT030 OVC040
     FM280800 00000KT P6SM -SHRA OVC028
     FM281200 00000KT 4SM BR OVC015
      AMD LTD TO CLD VIS AND WIND 2806/2815=

USA.gov is the U.S. government's official web portal to all federal, state and local government web resources and services.